Time;durP1;ratioP1;P1;durP2;ratioP2;P2;SDS_P1;SDS_P2;PMS_P1;PMS_P2;Temp;Humidity;BMP_temperature;BMP_pressure;BME280_temperature;BME280_humidity;BME280_pressure;Samples;Min_cycle;Max_cycle;Signal;HPM_P1;HPM_P2
2021/03/31 00:00:35;;;;;;;123.18;56.05;;;;;;;10.25;60.90;99621.25;5059407;28;20575;-78
2021/03/31 00:03:07;;;;;;;124.93;59.80;;;;;;;10.18;61.37;99613.28;5057525;28;20051;-78
2021/03/31 00:05:33;;;;;;;153.02;67.55;;;;;;;10.10;60.57;99614.59;5062539;28;20020;-78
2021/03/31 00:07:58;;;;;;;146.98;70.75;;;;;;;10.06;61.51;99613.47;5066878;28;20110;-79
2021/03/31 00:10:31;;;;;;;162.13;77.15;;;;;;;9.98;61.28;99608.50;5078904;28;20021;-79
2021/03/31 00:12:57;;;;;;;182.68;85.40;;;;;;;9.95;61.72;99609.84;5067405;28;20395;-79
2021/03/31 00:15:22;;;;;;;173.10;82.43;;;;;;;9.91;61.58;99618.88;5065925;28;20032;-79
2021/03/31 00:17:48;;;;;;;167.85;81.05;;;;;;;9.82;61.43;99613.88;5067087;28;20029;-79
2021/03/31 00:20:15;;;;;;;171.75;80.90;;;;;;;9.78;61.38;99607.25;5064497;28;20029;-79
2021/03/31 00:22:42;;;;;;;170.43;76.22;;;;;;;9.72;61.78;99608.31;5057634;28;20063;-79
2021/03/31 00:25:08;;;;;;;157.15;74.50;;;;;;;9.70;62.06;99610.47;5057485;28;20028;-79
2021/03/31 00:27:34;;;;;;;171.48;79.30;;;;;;;9.69;61.98;99608.81;5067294;28;20036;-79
2021/03/31 00:29:59;;;;;;;163.77;76.88;;;;;;;9.67;62.21;99611.84;5065852;28;20039;-79
2021/03/31 00:32:24;;;;;;;168.35;80.00;;;;;;;9.67;61.93;99600.03;5065400;28;20078;-79
2021/03/31 00:34:50;;;;;;;168.85;80.97;;;;;;;9.67;62.45;99602.78;5066301;28;20020;-79
2021/03/31 00:37:15;;;;;;;174.10;79.63;;;;;;;9.61;62.21;99604.66;5065188;28;20024;-78
2021/03/31 00:39:41;;;;;;;179.38;82.15;;;;;;;9.52;61.81;99607.06;5066048;28;20111;-78
2021/03/31 00:42:06;;;;;;;175.55;81.93;;;;;;;9.50;62.94;99597.44;5059058;28;20604;-77
2021/03/31 00:44:32;;;;;;;170.05;79.28;;;;;;;9.43;62.15;99599.56;5057803;28;20142;-78
2021/03/31 00:46:57;;;;;;;167.15;77.35;;;;;;;9.33;62.59;99594.84;5060230;28;20039;-78
2021/03/31 00:49:23;;;;;;;142.98;67.80;;;;;;;9.25;62.27;99590.66;5066654;28;20029;-78
2021/03/31 00:51:48;;;;;;;151.70;69.03;;;;;;;9.26;62.79;99586.00;5064739;28;20024;-77
2021/03/31 00:54:14;;;;;;;148.45;68.50;;;;;;;9.28;62.92;99587.41;5065866;28;20040;-78
2021/03/31 00:56:40;;;;;;;146.60;66.25;;;;;;;9.30;63.08;99593.47;5067772;28;20055;-78
2021/03/31 00:59:05;;;;;;;134.68;62.95;;;;;;;9.31;63.16;99586.91;5066437;28;20077;-79
2021/03/31 01:01:31;;;;;;;136.35;64.82;;;;;;;9.34;63.39;99588.28;5065762;28;20534;-79
2021/03/31 01:03:57;;;;;;;126.35;59.03;;;;;;;9.37;63.44;99587.75;5036000;28;615231;-79
2021/03/31 01:06:22;;;;;;;129.55;59.22;;;;;;;9.39;63.08;99586.41;5075173;28;20022;-79
2021/03/31 01:08:47;;;;;;;128.25;59.45;;;;;;;9.38;63.37;99578.47;5063311;28;20024;-79
2021/03/31 01:11:23;;;;;;;133.07;60.22;;;;;;;9.39;63.68;99580.09;5066608;28;20848;-78
2021/03/31 01:14:13;;;;;;;146.43;73.40;;;;;;;9.38;63.40;99579.28;5066042;28;20070;-79
2021/03/31 01:16:50;;;;;;;165.10;80.38;;;;;;;9.36;63.89;99583.38;5091420;28;20043;-78
2021/03/31 01:19:51;;;;;;;153.65;73.47;;;;;;;9.31;63.23;99577.84;5090427;28;20035;-78
2021/03/31 01:22:17;;;;;;;145.65;68.38;;;;;;;9.27;63.21;99593.13;5090416;28;20024;-78
2021/03/31 01:24:51;;;;;;;145.90;68.20;;;;;;;9.21;64.00;99579.41;5091059;28;20020;-78
2021/03/31 01:27:20;;;;;;;138.85;65.45;;;;;;;9.17;63.81;99589.22;5090265;28;20031;-79
2021/03/31 01:30:16;;;;;;;142.10;66.90;;;;;;;9.09;63.76;99576.81;5093015;28;20020;-79
2021/03/31 01:33:03;;;;;;;133.32;62.22;;;;;;;9.04;63.94;99579.50;5090116;28;20020;-78
2021/03/31 01:35:30;;;;;;;134.75;69.53;;;;;;;8.98;63.60;99579.72;5090025;28;20484;-78
2021/03/31 01:38:01;;;;;;;135.00;64.95;;;;;;;8.93;64.18;99581.31;5088791;28;20027;-79
2021/03/31 01:40:27;;;;;;;137.23;62.03;;;;;;;8.92;64.26;99579.66;5092733;28;20027;-79
2021/03/31 01:43:01;;;;;;;135.80;61.95;;;;;;;8.95;64.73;99578.34;5092221;28;20032;-78
2021/03/31 01:45:31;;;;;;;132.20;61.83;;;;;;;8.97;64.20;99578.06;5092144;28;20388;-78
2021/03/31 01:47:59;;;;;;;130.57;61.83;;;;;;;8.93;64.63;99575.84;5089953;28;20464;-79
2021/03/31 01:50:25;;;;;;;129.15;62.40;;;;;;;8.90;64.82;99581.03;5092505;28;20464;-78
2021/03/31 01:52:51;;;;;;;125.97;61.15;;;;;;;8.91;64.93;99585.41;5092360;28;20479;-78
2021/03/31 01:55:17;;;;;;;124.63;59.70;;;;;;;8.95;64.61;99578.34;5091984;28;20018;-78
2021/03/31 01:57:44;;;;;;;126.45;60.80;;;;;;;8.96;64.67;99579.16;5092000;28;20036;-79
2021/03/31 02:00:13;;;;;;;129.10;60.67;;;;;;;8.96;64.35;99580.00;5091883;28;20077;-79
2021/03/31 02:02:40;;;;;;;121.63;57.30;;;;;;;8.94;64.44;99573.97;5090214;28;20066;-78
2021/03/31 02:05:09;;;;;;;119.53;57.38;;;;;;;8.94;64.82;99576.69;5092483;28;20430;-78
2021/03/31 02:07:35;;;;;;;110.40;53.93;;;;;;;8.97;64.96;99581.63;5091736;28;20020;-77
2021/03/31 02:10:01;;;;;;;115.05;55.67;;;;;;;8.94;64.44;99574.75;5092090;28;20032;-79
2021/03/31 02:12:27;;;;;;;114.35;54.80;;;;;;;8.90;64.75;99570.09;5092177;28;20050;-79
2021/03/31 02:14:55;;;;;;;114.00;56.15;;;;;;;8.91;64.71;99566.25;5091763;28;20065;-79
2021/03/31 02:17:26;;;;;;;106.65;51.58;;;;;;;8.91;64.58;99560.78;5091690;28;20363;-79
2021/03/31 02:19:53;;;;;;;106.18;51.20;;;;;;;8.96;64.78;99571.78;5091774;28;20032;-79
2021/03/31 02:22:25;;;;;;;109.07;51.05;;;;;;;8.96;64.56;99562.75;5090378;28;20028;-79
2021/03/31 02:24:51;;;;;;;98.47;49.00;;;;;;;8.93;64.29;99562.16;5091816;28;20052;-78
2021/03/31 02:27:17;;;;;;;94.28;48.22;;;;;;;8.89;64.53;99565.69;5088421;28;20529;-79
2021/03/31 02:29:47;;;;;;;101.55;49.67;;;;;;;8.86;64.45;99560.72;5091766;28;20020;-78
2021/03/31 02:32:15;;;;;;;94.85;46.28;;;;;;;8.84;64.95;99551.97;5091656;28;20081;-79
2021/03/31 02:34:42;;;;;;;97.63;49.53;;;;;;;8.83;64.71;99559.31;5092800;28;20371;-78
2021/03/31 02:37:07;;;;;;;94.80;48.20;;;;;;;8.82;64.96;99559.59;5091995;28;20028;-79
2021/03/31 02:39:36;;;;;;;96.93;47.80;;;;;;;8.81;64.93;99550.53;5091349;28;20016;-79
2021/03/31 02:42:03;;;;;;;102.65;49.38;;;;;;;8.81;65.03;99556.00;5091410;28;20031;-79
2021/03/31 02:44:30;;;;;;;96.45;48.20;;;;;;;8.78;65.17;99571.06;5090502;28;20032;-79
2021/03/31 02:46:59;;;;;;;87.82;44.30;;;;;;;8.76;64.94;99551.34;5091024;28;20023;-78
2021/03/31 02:49:26;;;;;;;83.03;43.50;;;;;;;8.71;64.68;99555.94;5090294;28;20540;-79
2021/03/31 02:51:52;;;;;;;80.25;42.28;;;;;;;8.72;65.68;99557.59;5089612;28;20032;-79
2021/03/31 02:54:19;;;;;;;74.40;39.35;;;;;;;8.72;65.58;99543.91;5091128;28;20039;-79
2021/03/31 02:56:46;;;;;;;79.82;40.58;;;;;;;8.70;65.57;99552.34;5089621;28;20054;-78
2021/03/31 02:59:13;;;;;;;73.45;40.15;;;;;;;8.74;65.90;99544.47;5091002;28;20071;-79
2021/03/31 03:01:39;;;;;;;74.60;40.03;;;;;;;8.76;65.99;99556.00;5091323;28;20024;-78
2021/03/31 03:04:05;;;;;;;67.15;37.22;;;;;;;8.73;65.77;99546.38;5090659;28;20423;-79
2021/03/31 03:06:31;;;;;;;67.45;37.75;;;;;;;8.70;65.87;99557.81;5090996;28;20115;-78
2021/03/31 03:08:58;;;;;;;73.35;37.55;;;;;;;8.72;66.08;99552.13;5090581;28;20035;-78
2021/03/31 03:11:24;;;;;;;67.38;36.92;;;;;;;8.74;66.58;99558.97;5090599;28;20544;-78
2021/03/31 03:13:52;;;;;;;64.35;35.85;;;;;;;8.73;66.69;99560.03;5091026;28;20028;-78
2021/03/31 03:16:18;;;;;;;70.57;37.05;;;;;;;8.74;66.27;99547.22;5088504;28;20019;-79
2021/03/31 03:18:43;;;;;;;69.63;38.75;;;;;;;8.72;66.67;99552.13;5090779;28;20032;-78
2021/03/31 03:21:13;;;;;;;71.70;37.75;;;;;;;8.73;66.32;99549.09;5089584;28;20517;-78
2021/03/31 03:23:43;;;;;;;69.85;38.30;;;;;;;8.71;66.44;99551.28;5088499;28;20110;-78
2021/03/31 03:26:12;;;;;;;71.82;39.78;;;;;;;8.68;66.40;99540.03;5091018;28;20035;-79
2021/03/31 03:28:40;;;;;;;79.22;41.40;;;;;;;8.62;66.30;99544.59;5087936;28;20119;-78
2021/03/31 03:31:08;;;;;;;80.70;40.55;;;;;;;8.59;66.45;99550.59;5090779;28;20464;-79
2021/03/31 03:33:33;;;;;;;74.00;40.55;;;;;;;8.54;66.24;99534.94;5090759;28;20020;-79
2021/03/31 03:36:04;;;;;;;74.88;39.00;;;;;;;8.54;66.52;99540.41;5090492;28;20074;-79
2021/03/31 03:38:30;;;;;;;73.80;39.95;;;;;;;8.53;66.87;99536.03;5090120;28;20479;-78
2021/03/31 03:40:55;;;;;;;69.32;38.55;;;;;;;8.54;66.62;99548.63;5090744;28;20032;-79
2021/03/31 03:43:21;;;;;;;64.28;36.15;;;;;;;8.59;67.12;99537.75;5090443;28;20082;-80
2021/03/31 03:45:46;;;;;;;62.22;35.75;;;;;;;8.62;67.12;99531.78;5090272;28;20024;-78
2021/03/31 03:48:12;;;;;;;62.42;34.83;;;;;;;8.62;67.06;99539.97;5090859;28;20460;-79
2021/03/31 03:50:38;;;;;;;63.30;35.20;;;;;;;8.63;67.23;99541.63;5090785;28;20085;-78
2021/03/31 03:53:04;;;;;;;65.93;35.88;;;;;;;8.68;66.97;99546.31;5089670;28;20034;-79
2021/03/31 03:55:32;;;;;;;65.47;34.88;;;;;;;8.72;66.50;99552.13;5091186;28;20028;-79
2021/03/31 03:58:07;;;;;;;65.85;35.15;;;;;;;8.74;66.66;99542.56;5091621;28;20024;-79
2021/03/31 04:00:33;;;;;;;66.45;35.50;;;;;;;8.72;67.08;99541.16;5094161;28;20058;-78
2021/03/31 04:02:59;;;;;;;62.45;35.40;;;;;;;8.73;67.01;99549.09;5093653;28;20483;-79
2021/03/31 04:05:25;;;;;;;63.80;36.30;;;;;;;8.71;67.02;99545.81;5093939;28;20028;-79
2021/03/31 04:07:52;;;;;;;53.85;31.55;;;;;;;8.69;66.74;99552.63;5094294;28;20020;-79
2021/03/31 04:10:18;;;;;;;62.40;35.28;;;;;;;8.67;66.79;99546.59;5090812;28;20027;-79
2021/03/31 04:12:45;;;;;;;66.65;35.45;;;;;;;8.68;66.84;99537.28;5093286;28;20035;-79
2021/03/31 04:15:12;;;;;;;62.00;34.42;;;;;;;8.70;66.97;99544.16;5093964;28;20426;-79
2021/03/31 04:17:41;;;;;;;67.63;35.53;;;;;;;8.70;66.84;99543.34;5090984;28;20043;-79
2021/03/31 04:20:13;;;;;;;68.55;35.85;;;;;;;8.63;66.73;99549.84;5092707;28;20028;-80
2021/03/31 04:22:39;;;;;;;62.13;35.92;;;;;;;8.60;66.87;99544.88;5090753;28;20071;-79
2021/03/31 04:25:06;;;;;;;61.72;34.42;;;;;;;8.61;66.87;99546.53;5093319;28;20028;-78
2021/03/31 04:27:34;;;;;;;60.22;33.78;;;;;;;8.60;66.70;99535.81;5093508;28;20511;-79
2021/03/31 04:30:00;;;;;;;61.92;34.45;;;;;;;8.57;66.61;99547.28;5090946;28;20559;-79
2021/03/31 04:32:27;;;;;;;60.05;35.17;;;;;;;8.54;67.04;99542.34;5092930;28;20020;-78
2021/03/31 04:34:53;;;;;;;59.72;34.33;;;;;;;8.54;66.77;99542.34;5093799;28;20024;-79
2021/03/31 04:37:18;;;;;;;61.13;35.22;;;;;;;8.54;66.53;99550.56;5090721;28;20039;-79
2021/03/31 04:39:44;;;;;;;63.55;36.58;;;;;;;8.56;66.71;99538.25;5093382;28;20047;-79
2021/03/31 04:42:10;;;;;;;64.05;36.35;;;;;;;8.55;66.42;99539.34;5093060;28;20032;-78
2021/03/31 04:44:36;;;;;;;73.18;41.03;;;;;;;8.55;66.76;99541.25;5093361;28;20066;-79
2021/03/31 04:47:03;;;;;;;82.47;45.58;;;;;;;8.57;66.50;99539.06;5093612;28;20096;-78
2021/03/31 04:49:28;;;;;;;74.55;45.42;;;;;;;8.57;66.81;99539.06;5093268;28;20563;-79
2021/03/31 04:51:54;;;;;;;78.22;45.38;;;;;;;8.58;66.81;99543.47;5093111;28;20043;-78
2021/03/31 04:54:20;;;;;;;79.82;44.22;;;;;;;8.63;66.69;99546.25;5093177;28;20379;-79
2021/03/31 04:56:45;;;;;;;73.57;42.45;;;;;;;8.67;67.00;99535.66;5093568;28;20020;-78
2021/03/31 04:59:10;;;;;;;77.15;41.67;;;;;;;8.72;66.51;99541.16;5092939;28;20024;-78
2021/03/31 05:01:36;;;;;;;67.65;39.17;;;;;;;8.71;66.95;99534.88;5092614;28;20031;-79
2021/03/31 05:04:01;;;;;;;66.75;37.13;;;;;;;8.67;66.86;99530.16;5092289;28;20484;-79
2021/03/31 05:06:26;;;;;;;58.97;34.28;;;;;;;8.62;67.29;99526.31;5092883;28;20059;-77
2021/03/31 05:08:52;;;;;;;62.88;34.47;;;;;;;8.60;67.25;99524.88;5091346;28;20016;-77
2021/03/31 05:11:17;;;;;;;55.97;32.55;;;;;;;8.59;67.40;99526.81;5092552;28;20104;-79
2021/03/31 05:13:42;;;;;;;59.83;34.85;;;;;;;8.55;67.58;99525.66;5092260;28;20024;-78
2021/03/31 05:16:08;;;;;;;67.25;37.38;;;;;;;8.56;67.57;99518.31;5092941;28;20432;-79
2021/03/31 05:18:33;;;;;;;63.75;35.92;;;;;;;8.58;68.40;99522.44;5091937;28;20024;-79
2021/03/31 05:20:59;;;;;;;74.68;39.47;;;;;;;8.60;68.16;99525.72;5092453;28;20531;-78
2021/03/31 05:23:24;;;;;;;66.93;36.40;;;;;;;8.63;67.93;99525.22;5091247;28;20028;-78
2021/03/31 05:25:50;;;;;;;60.17;32.67;;;;;;;8.67;68.00;99530.97;5092525;28;20020;-79
2021/03/31 05:28:15;;;;;;;62.47;32.90;;;;;;;8.67;68.77;99528.25;5092343;28;20108;-78
2021/03/31 05:30:40;;;;;;;54.13;30.70;;;;;;;8.68;68.79;99532.63;5092285;28;20107;-78
2021/03/31 05:33:06;;;;;;;57.22;30.23;;;;;;;8.71;68.20;99532.13;5092459;28;20464;-79
2021/03/31 05:35:31;;;;;;;54.13;28.15;;;;;;;8.75;68.51;99533.25;5093791;28;20028;-79
2021/03/31 05:37:57;;;;;;;55.13;30.65;;;;;;;8.79;68.22;99525.34;5093091;28;20039;-79
2021/03/31 05:40:23;;;;;;;58.42;30.55;;;;;;;8.83;68.50;99526.50;5092569;28;20436;-79
2021/03/31 05:42:48;;;;;;;50.70;30.38;;;;;;;8.89;68.68;99527.38;5093714;28;20028;-79
2021/03/31 05:45:14;;;;;;;58.55;31.48;;;;;;;8.94;68.74;99517.31;5093722;28;20539;-79
2021/03/31 05:47:43;;;;;;;58.45;32.22;;;;;;;9.03;68.92;99525.88;5093208;28;20024;-79
2021/03/31 05:50:14;;;;;;;67.78;36.10;;;;;;;9.09;68.52;99522.09;5093858;28;20024;-80
2021/03/31 05:52:40;;;;;;;64.60;34.83;;;;;;;9.17;68.30;99528.19;5093633;28;20028;-79
2021/03/31 05:55:08;;;;;;;60.88;35.10;;;;;;;9.24;68.82;99529.59;5093378;28;20032;-79
2021/03/31 05:57:35;;;;;;;57.30;32.00;;;;;;;9.36;68.47;99525.88;5092890;28;20035;-79
2021/03/31 06:00:05;;;;;;;59.30;32.05;;;;;;;9.46;68.56;99517.75;5093018;28;20063;-79
2021/03/31 06:02:30;;;;;;;53.80;31.20;;;;;;;9.60;68.41;99522.75;5092669;28;20503;-79
2021/03/31 06:04:56;;;;;;;52.58;30.50;;;;;;;9.71;68.43;99531.88;5093632;28;20028;-79
2021/03/31 06:07:21;;;;;;;56.67;31.98;;;;;;;9.81;68.60;99520.97;5092633;28;20031;-79
2021/03/31 06:10:09;;;;;;;52.78;30.08;;;;;;;9.92;68.43;99533.63;5092664;28;20039;-79
2021/03/31 06:12:35;;;;;;;53.25;31.13;;;;;;;10.04;67.75;99527.13;5092999;28;20039;-79
2021/03/31 06:15:30;;;;;;;56.60;32.20;;;;;;;10.14;67.57;99529.94;5093289;28;20034;-79
2021/03/31 06:17:59;;;;;;;56.72;32.35;;;;;;;10.24;67.48;99532.69;5092332;28;20033;-79
2021/03/31 06:21:04;;;;;;;55.97;31.83;;;;;;;10.34;67.80;99520.97;5094825;28;20107;-79
2021/03/31 06:26:04;;;;;;;55.58;30.95;;;;;;;10.55;67.32;99524.63;5091581;28;20024;-79
2021/03/31 06:28:37;;;;;;;61.40;33.80;;;;;;;10.63;66.58;99531.50;5081727;28;20044;-79
2021/03/31 06:31:14;;;;;;;52.72;30.80;;;;;;;10.70;67.25;99529.31;5091717;28;20055;-79
2021/03/31 06:33:42;;;;;;;55.28;31.02;;;;;;;10.79;66.87;99523.31;5092524;28;20390;-79
2021/03/31 06:36:09;;;;;;;53.55;29.65;;;;;;;10.86;66.40;99532.09;5092504;28;20027;-78
2021/03/31 06:38:38;;;;;;;59.38;30.30;;;;;;;10.95;66.06;99529.66;5092826;28;20028;-78
2021/03/31 06:41:17;;;;;;;51.47;30.35;;;;;;;11.05;66.33;99520.59;5092756;28;20076;-78
2021/03/31 06:43:53;;;;;;;56.70;33.03;;;;;;;11.15;66.13;99526.09;5092508;28;20043;-78
2021/03/31 06:46:29;;;;;;;58.15;33.05;;;;;;;11.25;66.36;99520.59;5091197;28;20020;-79
2021/03/31 06:48:54;;;;;;;61.38;32.90;;;;;;;11.34;65.82;99520.03;5092806;28;20027;-78
2021/03/31 06:51:31;;;;;;;54.22;32.90;;;;;;;11.42;65.42;99516.75;5092766;28;20069;-78
2021/03/31 06:54:20;;;;;;;61.08;33.42;;;;;;;11.52;65.24;99516.75;5092306;28;20481;-78
2021/03/31 06:56:57;;;;;;;57.47;33.80;;;;;;;11.64;65.36;99513.69;5092642;28;20051;-78
2021/03/31 06:59:33;;;;;;;59.40;33.40;;;;;;;11.72;65.11;99509.56;5092575;28;20119;-77
2021/03/31 07:02:05;;;;;;;56.80;31.27;;;;;;;11.81;65.15;99507.09;5092271;28;20035;-77
2021/03/31 07:04:32;;;;;;;50.30;29.23;;;;;;;11.92;65.51;99511.44;5092088;28;20118;-77
2021/03/31 07:07:06;;;;;;;53.40;30.45;;;;;;;11.98;65.26;99513.06;5092298;28;20028;-77
2021/03/31 07:09:32;;;;;;;53.53;29.50;;;;;;;12.06;64.74;99514.44;5092416;28;20112;-76
2021/03/31 07:11:57;;;;;;;52.10;29.50;;;;;;;12.14;64.37;99516.63;5092134;28;20111;-77
2021/03/31 07:14:24;;;;;;;53.03;29.33;;;;;;;12.22;63.89;99515.25;5092138;28;20099;-76
2021/03/31 07:16:50;;;;;;;54.60;31.10;;;;;;;12.29;64.39;99515.72;5090631;28;20020;-76
2021/03/31 07:19:17;;;;;;;52.67;30.25;;;;;;;12.38;64.52;99512.41;5090740;28;20111;-76
2021/03/31 07:21:43;;;;;;;54.90;32.67;;;;;;;12.46;63.83;99515.38;5091175;28;20058;-77
2021/03/31 07:24:13;;;;;;;52.58;32.33;;;;;;;12.56;64.21;99510.94;5090407;28;20032;-77
2021/03/31 07:26:40;;;;;;;48.55;28.10;;;;;;;12.66;63.55;99511.69;5091178;28;20035;-76
2021/03/31 07:29:06;;;;;;;48.30;28.00;;;;;;;12.76;63.65;99510.81;5092100;28;20024;-75
2021/03/31 07:31:32;;;;;;;47.53;27.40;;;;;;;12.87;62.87;99505.22;5093613;28;20498;-75
2021/03/31 07:34:10;;;;;;;47.63;26.90;;;;;;;12.97;62.97;99510.66;5096166;28;20035;-76
2021/03/31 07:36:36;;;;;;;48.53;26.30;;;;;;;13.04;62.45;99513.94;5096497;28;20054;-75
2021/03/31 07:39:04;;;;;;;50.92;27.83;;;;;;;13.14;62.24;99509.47;5096166;28;20028;-76
2021/03/31 07:41:34;;;;;;;44.53;26.30;;;;;;;13.22;61.96;99512.41;5095677;28;20034;-76
2021/03/31 07:44:00;;;;;;;47.13;25.50;;;;;;;13.31;61.74;99507.09;5096185;28;20491;-76
2021/03/31 07:46:31;;;;;;;48.55;26.45;;;;;;;13.40;61.84;99493.53;5095331;28;20024;-75
2021/03/31 07:48:58;;;;;;;47.60;25.92;;;;;;;13.51;61.23;99506.13;5095466;28;20476;-76
2021/03/31 07:51:26;;;;;;;44.95;24.60;;;;;;;13.59;61.48;99501.94;5099244;28;20044;-76
2021/03/31 07:53:53;;;;;;;46.20;25.50;;;;;;;13.67;60.84;99501.28;5095998;28;20024;-76
2021/03/31 07:56:31;;;;;;;66.97;32.40;;;;;;;13.78;60.63;99501.19;5098791;28;20032;-76
2021/03/31 07:59:09;;;;;;;45.50;24.73;;;;;;;13.92;60.10;99499.38;5095595;28;20478;-76
2021/03/31 08:01:49;;;;;;;45.65;25.42;;;;;;;14.01;60.13;99501.50;5093138;28;20063;-77
2021/03/31 08:04:18;;;;;;;41.22;22.77;;;;;;;14.11;58.81;99504.13;5087484;28;20104;-77
2021/03/31 08:06:45;;;;;;;51.20;27.27;;;;;;;14.24;59.35;99500.66;5096285;28;20045;-76
2021/03/31 08:09:21;;;;;;;44.60;23.73;;;;;;;14.34;59.33;99505.22;5093545;28;20415;-76
2021/03/31 08:11:51;;;;;;;35.72;20.58;;;;;;;14.44;58.53;99491.28;5094808;28;20016;-76
2021/03/31 08:14:25;;;;;;;40.10;22.50;;;;;;;14.56;57.83;99496.34;5093674;28;20099;-76
2021/03/31 08:16:51;;;;;;;45.78;22.75;;;;;;;14.65;57.49;99488.25;5093677;28;20020;-76
2021/03/31 08:19:19;;;;;;;36.85;21.95;;;;;;;14.77;55.30;99481.47;5092546;28;20495;-76
2021/03/31 08:21:49;;;;;;;48.05;24.45;;;;;;;14.91;55.18;99484.28;5092663;28;20052;-75
2021/03/31 08:24:17;;;;;;;53.63;28.65;;;;;;;15.04;54.85;99483.53;5093398;28;20024;-74
2021/03/31 08:26:58;;;;;;;56.92;30.65;;;;;;;15.18;54.55;99484.41;5093586;28;20027;-73
2021/03/31 08:29:23;;;;;;;47.10;25.10;;;;;;;15.35;54.12;99479.44;5093807;28;20027;-79
2021/03/31 08:31:59;;;;;;;40.60;22.02;;;;;;;15.41;52.84;99479.06;5094882;28;20427;-83
2021/03/31 08:34:27;;;;;;;54.60;26.35;;;;;;;15.51;52.58;99477.22;5094663;28;20024;-83
2021/03/31 08:36:55;;;;;;;47.75;25.80;;;;;;;15.59;52.12;99471.00;5093434;28;20032;-82
2021/03/31 08:39:21;;;;;;;46.55;25.60;;;;;;;15.67;51.61;99463.94;5094006;28;20039;-83
2021/03/31 08:41:55;;;;;;;50.85;26.73;;;;;;;15.72;52.06;99470.19;5093561;28;20032;-83
2021/03/31 08:44:27;;;;;;;49.67;27.23;;;;;;;15.83;52.06;99467.22;5094637;28;20104;-86
2021/03/31 08:46:54;;;;;;;47.33;24.80;;;;;;;15.91;51.22;99472.09;5094847;28;20184;-85
2021/03/31 08:49:28;;;;;;;43.65;25.17;;;;;;;16.01;51.71;99471.88;5093223;28;20442;-83
2021/03/31 08:51:56;;;;;;;45.38;24.02;;;;;;;16.07;50.89;99467.88;5094639;28;20063;-83
2021/03/31 08:54:42;;;;;;;45.53;23.70;;;;;;;16.20;50.68;99473.69;5094682;28;20032;-83
2021/03/31 08:57:09;;;;;;;43.92;22.92;;;;;;;16.27;50.79;99468.56;5094624;28;20016;-81
2021/03/31 08:59:37;;;;;;;44.95;22.70;;;;;;;16.34;50.80;99460.66;5094579;28;20032;-81
2021/03/31 09:02:03;;;;;;;42.38;22.88;;;;;;;16.46;50.37;99459.31;5094236;28;20020;-83
2021/03/31 09:04:31;;;;;;;37.53;19.20;;;;;;;16.58;50.44;99456.81;5094244;28;20044;-81
2021/03/31 09:06:57;;;;;;;36.00;18.67;;;;;;;16.67;50.19;99452.19;5094292;28;20100;-83
2021/03/31 09:09:23;;;;;;;39.20;21.30;;;;;;;16.78;50.20;99449.19;5094441;28;20473;-79
2021/03/31 09:11:58;;;;;;;33.78;19.38;;;;;;;16.88;50.06;99443.41;5094165;28;20024;-79
2021/03/31 09:14:25;;;;;;;38.03;19.52;;;;;;;16.98;49.34;99441.50;5093458;28;20499;-79
2021/03/31 09:17:02;;;;;;;37.10;19.88;;;;;;;17.06;49.64;99440.75;5094082;28;20031;-81
2021/03/31 09:19:34;;;;;;;39.92;20.42;;;;;;;17.14;49.29;99440.00;5094011;28;20024;-83
2021/03/31 09:22:16;;;;;;;33.15;18.98;;;;;;;17.22;49.71;99435.66;5094212;28;20166;-83
2021/03/31 09:24:47;;;;;;;41.88;19.23;;;;;;;17.30;48.54;99429.34;5093954;28;20016;-84
2021/03/31 09:27:17;;;;;;;24.05;12.63;;;;;;;17.42;48.69;99425.97;5094000;28;20024;-81
2021/03/31 09:29:45;;;;;;;31.33;16.77;;;;;;;17.48;48.35;99432.22;5093982;28;20060;-83
2021/03/31 09:32:14;;;;;;;36.97;17.75;;;;;;;17.53;47.87;99426.50;5093634;28;20380;-82
2021/03/31 09:34:40;;;;;;;37.55;18.77;;;;;;;17.61;47.43;99420.19;5092715;28;20017;-83
2021/03/31 09:37:14;;;;;;;33.45;18.17;;;;;;;17.67;47.33;99415.34;5092052;28;20512;-83
2021/03/31 09:39:53;;;;;;;30.05;16.13;;;;;;;17.77;47.04;99414.22;5091728;28;20020;-82
2021/03/31 09:42:23;;;;;;;29.75;16.75;;;;;;;17.87;47.03;99413.94;5092891;28;20028;-83
2021/03/31 09:44:50;;;;;;;26.60;14.70;;;;;;;17.96;46.84;99413.94;5092958;28;20464;-83
2021/03/31 09:47:18;;;;;;;23.50;13.15;;;;;;;18.06;46.27;99410.06;5093092;28;20020;-83
2021/03/31 09:49:44;;;;;;;23.38;12.60;;;;;;;18.14;46.15;99410.09;5092949;28;20077;-83
2021/03/31 09:52:11;;;;;;;21.05;12.82;;;;;;;18.20;46.49;99407.16;5092788;28;20353;-82
2021/03/31 09:54:37;;;;;;;19.98;12.32;;;;;;;18.28;46.50;99400.81;5091978;28;20020;-82
2021/03/31 09:57:02;;;;;;;24.70;12.65;;;;;;;18.34;46.52;99399.50;5093155;28;20380;-83
2021/03/31 09:59:28;;;;;;;26.70;12.15;;;;;;;18.39;46.29;99393.78;5092876;28;20651;-83
2021/03/31 10:01:54;;;;;;;24.05;10.57;;;;;;;18.42;45.74;99395.94;5091332;28;20472;-83
2021/03/31 10:04:21;;;;;;;20.63;11.63;;;;;;;18.50;46.03;99396.25;5092797;28;20075;-82
2021/03/31 10:07:05;;;;;;;25.55;14.10;;;;;;;18.55;45.14;99396.91;5093015;28;20106;-83
2021/03/31 10:09:43;;;;;;;23.15;12.13;;;;;;;18.60;44.64;99387.56;5092142;28;20024;-83
2021/03/31 10:12:10;;;;;;;26.90;15.07;;;;;;;18.67;44.20;99385.13;5092505;28;20028;-83
2021/03/31 10:14:48;;;;;;;29.63;15.65;;;;;;;18.73;44.52;99386.59;5092212;28;20036;-82
2021/03/31 10:17:16;;;;;;;25.45;13.15;;;;;;;18.84;45.10;99381.50;5092927;28;20035;-83
2021/03/31 10:19:43;;;;;;;22.70;12.82;;;;;;;18.93;44.43;99380.69;5092856;28;20027;-83
2021/03/31 10:22:09;;;;;;;29.70;15.00;;;;;;;19.00;43.11;99379.06;5092720;28;20077;-85
2021/03/31 10:24:53;;;;;;;30.63;14.55;;;;;;;19.04;42.31;99373.66;5092904;28;20024;-83
2021/03/31 10:27:18;;;;;;;27.40;14.93;;;;;;;19.10;43.09;99369.56;5092938;28;20020;-84
2021/03/31 10:29:52;;;;;;;27.88;14.75;;;;;;;19.19;43.26;99369.53;5092906;28;20024;-84
2021/03/31 10:32:22;;;;;;;30.60;14.77;;;;;;;19.30;43.73;99368.03;5091539;28;20438;-84
2021/03/31 10:34:51;;;;;;;18.63;10.88;;;;;;;19.39;42.46;99369.94;5091462;28;20383;-83
2021/03/31 10:48:28;;;;;;;30.60;14.98;;;;;;;19.68;41.22;99349.69;5090359;28;20494;-85
2021/03/31 10:51:45;;;;;;;27.45;13.43;;;;;;;19.78;40.81;99348.47;5089293;28;20028;-84
2021/03/31 10:53:50;;;;;;;28.80;14.10;;;;;;;19.86;40.66;99341.25;5080371;28;20028;-84
2021/03/31 10:56:15;;;;;;;23.20;12.02;;;;;;;19.93;41.62;99342.38;5089458;28;20107;-84
2021/03/31 10:58:41;;;;;;;22.55;11.27;;;;;;;20.03;40.38;99346.72;5091807;28;20111;-83
2021/03/31 11:01:08;;;;;;;22.00;11.70;;;;;;;20.09;40.38;99341.78;5091931;28;20116;-84
2021/03/31 11:03:33;;;;;;;21.38;11.18;;;;;;;20.18;40.09;99344.50;5092260;28;20059;-84
2021/03/31 11:05:59;;;;;;;20.50;10.57;;;;;;;20.21;40.55;99332.69;5095635;28;20024;-84
2021/03/31 11:08:24;;;;;;;19.75;10.43;;;;;;;20.28;40.08;99340.47;5096624;28;20047;-85
2021/03/31 11:10:50;;;;;;;20.38;10.05;;;;;;;20.31;40.41;99332.28;5096654;28;20176;-82
2021/03/31 11:13:16;;;;;;;21.15;10.60;;;;;;;20.35;38.98;99324.88;5095230;28;20016;-82
2021/03/31 11:15:42;;;;;;;22.17;10.52;;;;;;;20.38;39.21;99317.78;5096594;28;20031;-82
2021/03/31 11:18:12;;;;;;;26.33;14.88;;;;;;;20.47;39.33;99318.53;5096563;28;20028;-83
2021/03/31 11:20:52;;;;;;;24.17;10.80;;;;;;;20.50;37.92;99317.84;5096342;28;20123;-82
2021/03/31 11:26:02;;;;;;;25.10;11.00;;;;;;;20.56;38.82;99312.88;5096289;28;20071;-82
2021/03/31 11:28:28;;;;;;;19.17;9.30;;;;;;;20.71;38.92;99307.81;5096115;28;20028;-78
2021/03/31 11:30:54;;;;;;;18.67;9.80;;;;;;;20.82;39.33;99292.28;5094946;28;20084;-78
2021/03/31 11:33:25;;;;;;;18.20;10.07;;;;;;;20.88;39.00;99301.28;5096071;28;20024;-78
2021/03/31 11:35:51;;;;;;;16.75;8.90;;;;;;;20.97;38.86;99300.00;5095065;28;20361;-78
2021/03/31 11:38:17;;;;;;;17.63;9.35;;;;;;;21.03;38.74;99291.41;5096080;28;20073;-78
2021/03/31 11:40:42;;;;;;;19.27;9.57;;;;;;;21.03;38.40;99283.06;5096081;28;20016;-78
2021/03/31 11:43:10;;;;;;;16.38;8.48;;;;;;;20.99;38.32;99282.09;5096083;28;20024;-78